sensor_id;sensor_type;location;lat;lon;timestamp;temperature;humidity
75799;DHT22;65035;44.726;37.764;2023-01-28T00:00:37;19.00;118.99
75799;DHT22;65035;44.726;37.764;2023-01-28T00:01:40;19.03;118.99
75799;DHT22;65035;44.726;37.764;2023-01-28T00:02:43;19.05;118.99
75799;DHT22;65035;44.726;37.764;2023-01-28T00:03:49;19.02;118.99
75799;DHT22;65035;44.726;37.764;2023-01-28T00:04:53;19.00;118.99
75799;DHT22;65035;44.726;37.764;2023-01-28T00:06:22;19.05;116.90
75799;DHT22;65035;44.726;37.764;2023-01-28T00:07:25;19.05;118.99
75799;DHT22;65035;44.726;37.764;2023-01-28T00:08:28;19.03;118.99
75799;DHT22;65035;44.726;37.764;2023-01-28T00:09:32;19.02;118.99
75799;DHT22;65035;44.726;37.764;2023-01-28T00:10:36;19.02;117.73
75799;DHT22;65035;44.726;37.764;2023-01-28T00:11:41;19.00;118.99
75799;DHT22;65035;44.726;37.764;2023-01-28T00:12:44;19.00;118.99
75799;DHT22;65035;44.726;37.764;2023-01-28T00:13:50;19.02;118.99
75799;DHT22;65035;44.726;37.764;2023-01-28T00:14:54;19.01;118.99
75799;DHT22;65035;44.726;37.764;2023-01-28T00:16:05;19.00;118.99
75799;DHT22;65035;44.726;37.764;2023-01-28T00:17:08;18.99;118.99
75799;DHT22;65035;44.726;37.764;2023-01-28T00:18:11;19.02;118.87
75799;DHT22;65035;44.726;37.764;2023-01-28T00:19:17;19.01;118.99
75799;DHT22;65035;44.726;37.764;2023-01-28T00:20:23;19.01;118.99
75799;DHT22;65035;44.726;37.764;2023-01-28T00:21:26;18.98;118.99
75799;DHT22;65035;44.726;37.764;2023-01-28T00:22:30;19.01;118.99
75799;DHT22;65035;44.726;37.764;2023-01-28T00:23:35;18.99;118.38
75799;DHT22;65035;44.726;37.764;2023-01-28T00:24:38;19.03;118.91
75799;DHT22;65035;44.726;37.764;2023-01-28T00:25:41;19.03;118.99
75799;DHT22;65035;44.726;37.764;2023-01-28T00:26:46;19.02;118.99
75799;DHT22;65035;44.726;37.764;2023-01-28T00:27:52;19.05;116.94
75799;DHT22;65035;44.726;37.764;2023-01-28T00:28:55;19.06;118.99
75799;DHT22;65035;44.726;37.764;2023-01-28T00:29:57;19.06;118.99
75799;DHT22;65035;44.726;37.764;2023-01-28T00:31:17;19.07;117.35
75799;DHT22;65035;44.726;37.764;2023-01-28T00:32:20;19.09;118.99
75799;DHT22;65035;44.726;37.764;2023-01-28T00:33:23;19.09;118.13
75799;DHT22;65035;44.726;37.764;2023-01-28T00:34:30;19.11;118.99
75799;DHT22;65035;44.726;37.764;2023-01-28T00:35:33;19.11;116.23
75799;DHT22;65035;44.726;37.764;2023-01-28T00:36:38;19.17;105.66
75799;DHT22;65035;44.726;37.764;2023-01-28T00:37:44;19.13;112.24
75799;DHT22;65035;44.726;37.764;2023-01-28T00:38:55;19.11;116.81
75799;DHT22;65035;44.726;37.764;2023-01-28T00:39:58;19.10;118.99
75799;DHT22;65035;44.726;37.764;2023-01-28T00:41:08;19.11;116.99
75799;DHT22;65035;44.726;37.764;2023-01-28T00:42:14;19.16;111.94
75799;DHT22;65035;44.726;37.764;2023-01-28T00:43:18;19.15;107.13
75799;DHT22;65035;44.726;37.764;2023-01-28T00:44:23;19.13;111.94
75799;DHT22;65035;44.726;37.764;2023-01-28T00:45:26;19.14;111.21
75799;DHT22;65035;44.726;37.764;2023-01-28T00:46:31;19.13;114.61
75799;DHT22;65035;44.726;37.764;2023-01-28T00:47:34;19.13;110.08
75799;DHT22;65035;44.726;37.764;2023-01-28T00:48:38;19.14;113.38
75799;DHT22;65035;44.726;37.764;2023-01-28T00:49:41;19.12;113.67
75799;DHT22;65035;44.726;37.764;2023-01-28T00:50:44;19.12;115.51
75799;DHT22;65035;44.726;37.764;2023-01-28T00:51:48;19.11;116.78
75799;DHT22;65035;44.726;37.764;2023-01-28T00:52:51;19.15;113.82
75799;DHT22;65035;44.726;37.764;2023-01-28T00:53:53;19.15;118.99
75799;DHT22;65035;44.726;37.764;2023-01-28T00:54:56;19.15;112.54
75799;DHT22;65035;44.726;37.764;2023-01-28T00:56:00;19.10;118.99
75799;DHT22;65035;44.726;37.764;2023-01-28T00:57:03;19.15;116.59
75799;DHT22;65035;44.726;37.764;2023-01-28T00:58:06;19.11;118.74
75799;DHT22;65035;44.726;37.764;2023-01-28T00:59:09;19.12;115.54
75799;DHT22;65035;44.726;37.764;2023-01-28T01:00:12;19.12;118.99
75799;DHT22;65035;44.726;37.764;2023-01-28T01:01:20;19.15;117.57
75799;DHT22;65035;44.726;37.764;2023-01-28T01:02:23;19.15;115.12
75799;DHT22;65035;44.726;37.764;2023-01-28T01:03:25;19.13;115.48
75799;DHT22;65035;44.726;37.764;2023-01-28T01:04:28;19.13;114.19
75799;DHT22;65035;44.726;37.764;2023-01-28T01:05:37;19.12;118.99
75799;DHT22;65035;44.726;37.764;2023-01-28T01:06:42;19.14;115.66
75799;DHT22;65035;44.726;37.764;2023-01-28T01:07:45;19.17;112.05
75799;DHT22;65035;44.726;37.764;2023-01-28T01:08:47;19.16;114.75
75799;DHT22;65035;44.726;37.764;2023-01-28T01:09:52;19.14;107.27
75799;DHT22;65035;44.726;37.764;2023-01-28T01:10:58;19.14;117.46
75799;DHT22;65035;44.726;37.764;2023-01-28T01:12:00;19.13;118.60
75799;DHT22;65035;44.726;37.764;2023-01-28T01:13:07;19.16;110.57
75799;DHT22;65035;44.726;37.764;2023-01-28T01:14:10;19.16;118.99
75799;DHT22;65035;44.726;37.764;2023-01-28T01:15:15;19.15;117.79
75799;DHT22;65035;44.726;37.764;2023-01-28T01:16:19;19.14;114.00
75799;DHT22;65035;44.726;37.764;2023-01-28T01:17:23;19.14;118.99
75799;DHT22;65035;44.726;37.764;2023-01-28T01:18:35;19.15;115.54
75799;DHT22;65035;44.726;37.764;2023-01-28T01:19:47;19.16;113.97
75799;DHT22;65035;44.726;37.764;2023-01-28T01:20:50;19.16;118.99
75799;DHT22;65035;44.726;37.764;2023-01-28T01:22:00;19.13;117.04
75799;DHT22;65035;44.726;37.764;2023-01-28T01:23:02;19.12;118.99
75799;DHT22;65035;44.726;37.764;2023-01-28T01:24:05;19.12;118.74
75799;DHT22;65035;44.726;37.764;2023-01-28T01:25:09;19.13;114.40
75799;DHT22;65035;44.726;37.764;2023-01-28T01:26:14;19.14;118.37
75799;DHT22;65035;44.726;37.764;2023-01-28T01:27:17;19.16;118.99
75799;DHT22;65035;44.726;37.764;2023-01-28T01:28:20;19.16;117.67
75799;DHT22;65035;44.726;37.764;2023-01-28T01:29:23;19.13;118.99
75799;DHT22;65035;44.726;37.764;2023-01-28T01:30:26;19.13;118.99
75799;DHT22;65035;44.726;37.764;2023-01-28T01:31:29;19.14;118.99
75799;DHT22;65035;44.726;37.764;2023-01-28T01:32:35;19.14;118.99
75799;DHT22;65035;44.726;37.764;2023-01-28T01:33:38;19.16;110.76
75799;DHT22;65035;44.726;37.764;2023-01-28T01:34:41;19.17;113.89
75799;DHT22;65035;44.726;37.764;2023-01-28T01:35:52;19.17;114.03
75799;DHT22;65035;44.726;37.764;2023-01-28T01:36:56;19.17;116.31
75799;DHT22;65035;44.726;37.764;2023-01-28T01:38:00;19.16;118.99
75799;DHT22;65035;44.726;37.764;2023-01-28T01:39:03;19.15;115.49
75799;DHT22;65035;44.726;37.764;2023-01-28T01:40:06;19.13;118.99
75799;DHT22;65035;44.726;37.764;2023-01-28T01:41:21;19.12;118.99
75799;DHT22;65035;44.726;37.764;2023-01-28T01:42:24;19.14;118.99
75799;DHT22;65035;44.726;37.764;2023-01-28T01:43:56;19.13;118.99
75799;DHT22;65035;44.726;37.764;2023-01-28T01:45:33;19.17;118.99
75799;DHT22;65035;44.726;37.764;2023-01-28T01:46:41;19.17;118.79
75799;DHT22;65035;44.726;37.764;2023-01-28T01:48:55;19.15;117.86
75799;DHT22;65035;44.726;37.764;2023-01-28T01:50:08;19.17;118.99
75799;DHT22;65035;44.726;37.764;2023-01-28T01:51:18;19.16;118.56
75799;DHT22;65035;44.726;37.764;2023-01-28T01:52:26;19.18;118.99
75799;DHT22;65035;44.726;37.764;2023-01-28T01:53:31;19.16;118.99
75799;DHT22;65035;44.726;37.764;2023-01-28T01:54:35;19.16;112.85
75799;DHT22;65035;44.726;37.764;2023-01-28T01:55:40;19.15;118.99
75799;DHT22;65035;44.726;37.764;2023-01-28T01:56:47;19.15;118.99
75799;DHT22;65035;44.726;37.764;2023-01-28T01:57:54;19.14;118.99
75799;DHT22;65035;44.726;37.764;2023-01-28T01:58:59;19.17;109.01
75799;DHT22;65035;44.726;37.764;2023-01-28T02:00:05;19.16;113.30
75799;DHT22;65035;44.726;37.764;2023-01-28T02:01:15;19.14;115.16
75799;DHT22;65035;44.726;37.764;2023-01-28T02:02:17;19.14;117.66
75799;DHT22;65035;44.726;37.764;2023-01-28T02:03:27;19.13;118.99
75799;DHT22;65035;44.726;37.764;2023-01-28T02:04:43;19.10;118.99
75799;DHT22;65035;44.726;37.764;2023-01-28T02:05:50;19.12;118.99
75799;DHT22;65035;44.726;37.764;2023-01-28T02:06:55;19.12;118.99
75799;DHT22;65035;44.726;37.764;2023-01-28T02:08:00;19.09;118.99
75799;DHT22;65035;44.726;37.764;2023-01-28T02:09:29;19.11;118.99
75799;DHT22;65035;44.726;37.764;2023-01-28T02:10:32;19.18;118.99
75799;DHT22;65035;44.726;37.764;2023-01-28T02:11:35;19.09;118.99
75799;DHT22;65035;44.726;37.764;2023-01-28T02:12:56;19.08;118.99
75799;DHT22;65035;44.726;37.764;2023-01-28T02:14:03;19.14;118.99
75799;DHT22;65035;44.726;37.764;2023-01-28T02:15:09;19.09;118.99
75799;DHT22;65035;44.726;37.764;2023-01-28T02:16:15;19.12;118.99
75799;DHT22;65035;44.726;37.764;2023-01-28T02:17:19;19.09;118.99
75799;DHT22;65035;44.726;37.764;2023-01-28T02:18:22;19.13;118.99
75799;DHT22;65035;44.726;37.764;2023-01-28T02:19:26;19.11;118.99
75799;DHT22;65035;44.726;37.764;2023-01-28T02:24:56;19.12;118.99
75799;DHT22;65035;44.726;37.764;2023-01-28T02:26:58;19.13;118.99
75799;DHT22;65035;44.726;37.764;2023-01-28T02:30:21;19.09;118.99
75799;DHT22;65035;44.726;37.764;2023-01-28T02:31:43;19.13;118.99
75799;DHT22;65035;44.726;37.764;2023-01-28T02:32:53;19.11;118.99
75799;DHT22;65035;44.726;37.764;2023-01-28T02:35:48;19.12;118.38
75799;DHT22;65035;44.726;37.764;2023-01-28T02:37:16;19.11;118.99
75799;DHT22;65035;44.726;37.764;2023-01-28T02:38:32;19.11;118.99
75799;DHT22;65035;44.726;37.764;2023-01-28T02:39:42;19.09;118.99
75799;DHT22;65035;44.726;37.764;2023-01-28T02:40:50;19.12;118.99
75799;DHT22;65035;44.726;37.764;2023-01-28T02:42:24;19.10;118.91
75799;DHT22;65035;44.726;37.764;2023-01-28T02:43:33;19.07;118.99
75799;DHT22;65035;44.726;37.764;2023-01-28T02:44:37;19.11;118.99
75799;DHT22;65035;44.726;37.764;2023-01-28T02:45:39;19.07;118.99
75799;DHT22;65035;44.726;37.764;2023-01-28T02:47:01;19.08;118.99
75799;DHT22;65035;44.726;37.764;2023-01-28T02:48:22;19.10;118.99
75799;DHT22;65035;44.726;37.764;2023-01-28T02:49:49;19.11;108.50
75799;DHT22;65035;44.726;37.764;2023-01-28T02:51:01;19.13;107.06
75799;DHT22;65035;44.726;37.764;2023-01-28T02:52:15;19.08;106.84
75799;DHT22;65035;44.726;37.764;2023-01-28T02:53:30;19.09;110.47
75799;DHT22;65035;44.726;37.764;2023-01-28T02:55:02;19.10;118.99
75799;DHT22;65035;44.726;37.764;2023-01-28T03:00:03;19.05;118.99
75799;DHT22;65035;44.726;37.764;2023-01-28T03:03:49;19.05;118.99
75799;DHT22;65035;44.726;37.764;2023-01-28T03:06:39;19.02;118.99
75799;DHT22;65035;44.726;37.764;2023-01-28T03:07:43;19.05;118.99
75799;DHT22;65035;44.726;37.764;2023-01-28T03:08:54;19.00;118.99
75799;DHT22;65035;44.726;37.764;2023-01-28T03:10:19;19.08;118.99
75799;DHT22;65035;44.726;37.764;2023-01-28T03:11:27;19.09;118.99
75799;DHT22;65035;44.726;37.764;2023-01-28T03:12:55;19.08;118.99
75799;DHT22;65035;44.726;37.764;2023-01-28T03:14:18;19.09;118.99
75799;DHT22;65035;44.726;37.764;2023-01-28T03:15:47;19.11;118.99
75799;DHT22;65035;44.726;37.764;2023-01-28T03:17:16;19.08;118.99
75799;DHT22;65035;44.726;37.764;2023-01-28T03:18:44;19.10;118.99
75799;DHT22;65035;44.726;37.764;2023-01-28T03:20:14;19.11;117.42
75799;DHT22;65035;44.726;37.764;2023-01-28T03:21:40;19.10;118.99
75799;DHT22;65035;44.726;37.764;2023-01-28T03:23:09;19.10;118.29
75799;DHT22;65035;44.726;37.764;2023-01-28T03:24:43;19.10;118.99
75799;DHT22;65035;44.726;37.764;2023-01-28T03:26:08;19.08;118.99
75799;DHT22;65035;44.726;37.764;2023-01-28T03:27:49;19.09;118.99
75799;DHT22;65035;44.726;37.764;2023-01-28T03:29:13;19.09;118.99
75799;DHT22;65035;44.726;37.764;2023-01-28T03:30:54;19.08;118.99
75799;DHT22;65035;44.726;37.764;2023-01-28T03:32:24;19.08;118.83
75799;DHT22;65035;44.726;37.764;2023-01-28T03:33:46;19.06;118.99
75799;DHT22;65035;44.726;37.764;2023-01-28T03:35:09;19.06;118.99
75799;DHT22;65035;44.726;37.764;2023-01-28T03:36:34;19.06;118.99
75799;DHT22;65035;44.726;37.764;2023-01-28T03:38:12;19.05;118.99
75799;DHT22;65035;44.726;37.764;2023-01-28T03:39:27;19.05;118.99
75799;DHT22;65035;44.726;37.764;2023-01-28T03:40:31;19.05;118.99
75799;DHT22;65035;44.726;37.764;2023-01-28T03:41:34;19.03;118.99
75799;DHT22;65035;44.726;37.764;2023-01-28T03:42:36;19.08;118.99
75799;DHT22;65035;44.726;37.764;2023-01-28T03:44:05;19.05;118.99
75799;DHT22;65035;44.726;37.764;2023-01-28T03:45:27;19.02;118.99
75799;DHT22;65035;44.726;37.764;2023-01-28T03:46:30;19.02;118.99
75799;DHT22;65035;44.726;37.764;2023-01-28T03:47:33;19.03;118.99
75799;DHT22;65035;44.726;37.764;2023-01-28T03:48:39;19.05;118.99
75799;DHT22;65035;44.726;37.764;2023-01-28T03:49:47;19.05;118.99
75799;DHT22;65035;44.726;37.764;2023-01-28T03:50:55;19.03;117.37
75799;DHT22;65035;44.726;37.764;2023-01-28T03:52:03;19.01;118.99
75799;DHT22;65035;44.726;37.764;2023-01-28T03:53:06;19.05;118.99
75799;DHT22;65035;44.726;37.764;2023-01-28T03:54:21;19.06;118.99
75799;DHT22;65035;44.726;37.764;2023-01-28T03:55:24;19.06;114.32
75799;DHT22;65035;44.726;37.764;2023-01-28T03:56:27;19.03;118.99
75799;DHT22;65035;44.726;37.764;2023-01-28T03:57:34;19.05;115.82
75799;DHT22;65035;44.726;37.764;2023-01-28T03:58:36;19.02;118.99
75799;DHT22;65035;44.726;37.764;2023-01-28T03:59:55;19.03;118.99
75799;DHT22;65035;44.726;37.764;2023-01-28T04:00:58;19.05;118.99
75799;DHT22;65035;44.726;37.764;2023-01-28T04:02:00;19.05;118.99
75799;DHT22;65035;44.726;37.764;2023-01-28T04:03:11;19.03;118.99
75799;DHT22;65035;44.726;37.764;2023-01-28T04:04:29;19.03;116.38
75799;DHT22;65035;44.726;37.764;2023-01-28T04:05:34;19.06;116.48
75799;DHT22;65035;44.726;37.764;2023-01-28T04:06:37;19.06;118.99
75799;DHT22;65035;44.726;37.764;2023-01-28T04:07:58;19.06;118.99
75799;DHT22;65035;44.726;37.764;2023-01-28T04:09:09;19.06;118.99
75799;DHT22;65035;44.726;37.764;2023-01-28T04:10:22;19.07;117.91
75799;DHT22;65035;44.726;37.764;2023-01-28T04:11:31;19.08;118.99
75799;DHT22;65035;44.726;37.764;2023-01-28T04:12:37;19.08;118.99
75799;DHT22;65035;44.726;37.764;2023-01-28T04:13:43;19.09;118.99
75799;DHT22;65035;44.726;37.764;2023-01-28T04:14:47;19.13;118.99
75799;DHT22;65035;44.726;37.764;2023-01-28T04:15:59;19.11;118.99
75799;DHT22;65035;44.726;37.764;2023-01-28T04:17:09;19.10;118.99
75799;DHT22;65035;44.726;37.764;2023-01-28T04:18:13;19.11;118.99
75799;DHT22;65035;44.726;37.764;2023-01-28T04:19:17;19.10;117.35
75799;DHT22;65035;44.726;37.764;2023-01-28T04:20:20;19.13;116.48
75799;DHT22;65035;44.726;37.764;2023-01-28T04:21:24;19.12;118.99
75799;DHT22;65035;44.726;37.764;2023-01-28T04:22:26;19.12;117.05
75799;DHT22;65035;44.726;37.764;2023-01-28T04:23:31;19.13;115.05
75799;DHT22;65035;44.726;37.764;2023-01-28T04:24:37;19.11;117.43
75799;DHT22;65035;44.726;37.764;2023-01-28T04:25:40;19.11;118.99
75799;DHT22;65035;44.726;37.764;2023-01-28T04:26:43;19.09;118.99
75799;DHT22;65035;44.726;37.764;2023-01-28T04:27:46;19.10;118.99
75799;DHT22;65035;44.726;37.764;2023-01-28T04:28:55;19.09;118.99
75799;DHT22;65035;44.726;37.764;2023-01-28T04:29:58;19.09;118.99
75799;DHT22;65035;44.726;37.764;2023-01-28T04:31:27;19.09;118.99
75799;DHT22;65035;44.726;37.764;2023-01-28T04:32:49;19.06;118.99
75799;DHT22;65035;44.726;37.764;2023-01-28T04:34:03;19.07;118.99
75799;DHT22;65035;44.726;37.764;2023-01-28T04:35:26;19.07;116.01
75799;DHT22;65035;44.726;37.764;2023-01-28T04:36:36;19.07;118.99
75799;DHT22;65035;44.726;37.764;2023-01-28T04:38:17;19.07;118.99
75799;DHT22;65035;44.726;37.764;2023-01-28T04:39:32;19.06;118.99
75799;DHT22;65035;44.726;37.764;2023-01-28T04:40:52;19.08;118.99
75799;DHT22;65035;44.726;37.764;2023-01-28T04:42:04;19.09;115.13
75799;DHT22;65035;44.726;37.764;2023-01-28T04:43:32;19.08;118.99
75799;DHT22;65035;44.726;37.764;2023-01-28T04:44:53;19.10;118.99
75799;DHT22;65035;44.726;37.764;2023-01-28T04:46:28;19.06;118.89
75799;DHT22;65035;44.726;37.764;2023-01-28T04:47:45;19.05;118.99
75799;DHT22;65035;44.726;37.764;2023-01-28T04:49:26;19.01;118.99
75799;DHT22;65035;44.726;37.764;2023-01-28T04:50:51;19.00;118.99
75799;DHT22;65035;44.726;37.764;2023-01-28T04:52:23;19.00;118.99
75799;DHT22;65035;44.726;37.764;2023-01-28T04:53:29;19.02;118.99
75799;DHT22;65035;44.726;37.764;2023-01-28T04:54:35;19.02;118.99
75799;DHT22;65035;44.726;37.764;2023-01-28T04:55:39;19.03;118.99
75799;DHT22;65035;44.726;37.764;2023-01-28T04:56:42;19.03;118.99
75799;DHT22;65035;44.726;37.764;2023-01-28T04:57:46;19.00;118.99
75799;DHT22;65035;44.726;37.764;2023-01-28T04:58:49;19.00;118.99
75799;DHT22;65035;44.726;37.764;2023-01-28T04:59:52;18.99;118.99
75799;DHT22;65035;44.726;37.764;2023-01-28T05:00:56;19.02;118.99
75799;DHT22;65035;44.726;37.764;2023-01-28T05:02:00;19.01;118.99
75799;DHT22;65035;44.726;37.764;2023-01-28T05:03:03;19.00;118.99
75799;DHT22;65035;44.726;37.764;2023-01-28T05:04:06;18.99;118.99
75799;DHT22;65035;44.726;37.764;2023-01-28T05:05:11;18.99;118.99
75799;DHT22;65035;44.726;37.764;2023-01-28T05:06:44;19.02;118.99
75799;DHT22;65035;44.726;37.764;2023-01-28T05:07:52;19.01;118.99
75799;DHT22;65035;44.726;37.764;2023-01-28T05:08:55;19.02;118.99
75799;DHT22;65035;44.726;37.764;2023-01-28T05:09:57;19.02;118.99
75799;DHT22;65035;44.726;37.764;2023-01-28T05:11:07;19.01;118.99
75799;DHT22;65035;44.726;37.764;2023-01-28T05:12:10;19.06;118.99
75799;DHT22;65035;44.726;37.764;2023-01-28T05:13:14;19.01;118.99
75799;DHT22;65035;44.726;37.764;2023-01-28T05:14:18;19.02;118.99
75799;DHT22;65035;44.726;37.764;2023-01-28T05:15:28;19.02;118.99
75799;DHT22;65035;44.726;37.764;2023-01-28T05:16:31;19.01;118.99
75799;DHT22;65035;44.726;37.764;2023-01-28T05:17:37;19.01;118.99
75799;DHT22;65035;44.726;37.764;2023-01-28T05:18:44;19.03;118.99
75799;DHT22;65035;44.726;37.764;2023-01-28T05:19:52;19.03;118.99
75799;DHT22;65035;44.726;37.764;2023-01-28T05:20:58;19.02;118.99
75799;DHT22;65035;44.726;37.764;2023-01-28T05:22:04;19.00;118.99
75799;DHT22;65035;44.726;37.764;2023-01-28T05:23:17;19.01;118.99
75799;DHT22;65035;44.726;37.764;2023-01-28T05:24:25;19.00;118.99
75799;DHT22;65035;44.726;37.764;2023-01-28T05:25:28;19.00;118.99
75799;DHT22;65035;44.726;37.764;2023-01-28T05:26:31;19.03;118.99
75799;DHT22;65035;44.726;37.764;2023-01-28T05:27:35;19.01;118.99
75799;DHT22;65035;44.726;37.764;2023-01-28T05:28:38;18.98;118.99
75799;DHT22;65035;44.726;37.764;2023-01-28T05:29:42;18.99;118.99
75799;DHT22;65035;44.726;37.764;2023-01-28T05:30:45;19.01;118.99
75799;DHT22;65035;44.726;37.764;2023-01-28T05:31:50;18.99;118.99
75799;DHT22;65035;44.726;37.764;2023-01-28T05:32:54;19.05;118.99
75799;DHT22;65035;44.726;37.764;2023-01-28T05:33:58;19.00;118.99
75799;DHT22;65035;44.726;37.764;2023-01-28T05:35:05;19.00;118.99
75799;DHT22;65035;44.726;37.764;2023-01-28T05:36:08;19.06;118.99
75799;DHT22;65035;44.726;37.764;2023-01-28T05:37:12;19.08;118.99
75799;DHT22;65035;44.726;37.764;2023-01-28T05:38:15;19.03;118.99
75799;DHT22;65035;44.726;37.764;2023-01-28T05:39:18;19.08;118.99
75799;DHT22;65035;44.726;37.764;2023-01-28T05:40:21;19.09;118.99
75799;DHT22;65035;44.726;37.764;2023-01-28T05:41:25;19.12;118.99
75799;DHT22;65035;44.726;37.764;2023-01-28T05:42:33;19.13;118.99
75799;DHT22;65035;44.726;37.764;2023-01-28T05:43:53;19.12;118.99
75799;DHT22;65035;44.726;37.764;2023-01-28T05:45:19;19.10;118.99
75799;DHT22;65035;44.726;37.764;2023-01-28T05:46:45;19.10;118.99
75799;DHT22;65035;44.726;37.764;2023-01-28T05:48:08;19.12;118.99
75799;DHT22;65035;44.726;37.764;2023-01-28T05:49:22;19.13;118.99
75799;DHT22;65035;44.726;37.764;2023-01-28T05:50:45;19.16;118.99
75799;DHT22;65035;44.726;37.764;2023-01-28T05:52:06;19.15;118.99
75799;DHT22;65035;44.726;37.764;2023-01-28T05:53:09;19.15;118.99
75799;DHT22;65035;44.726;37.764;2023-01-28T05:54:14;19.14;118.99
75799;DHT22;65035;44.726;37.764;2023-01-28T05:55:17;19.17;118.99
75799;DHT22;65035;44.726;37.764;2023-01-28T05:56:22;19.17;118.99
75799;DHT22;65035;44.726;37.764;2023-01-28T05:57:24;19.15;118.99
75799;DHT22;65035;44.726;37.764;2023-01-28T05:58:27;19.14;118.99
75799;DHT22;65035;44.726;37.764;2023-01-28T05:59:36;19.13;118.99
75799;DHT22;65035;44.726;37.764;2023-01-28T06:00:39;19.14;118.99
75799;DHT22;65035;44.726;37.764;2023-01-28T06:01:42;19.15;118.99
75799;DHT22;65035;44.726;37.764;2023-01-28T06:02:45;19.13;118.99
75799;DHT22;65035;44.726;37.764;2023-01-28T06:03:49;19.16;118.99
75799;DHT22;65035;44.726;37.764;2023-01-28T06:04:53;19.13;118.99
75799;DHT22;65035;44.726;37.764;2023-01-28T06:05:55;19.18;118.99
75799;DHT22;65035;44.726;37.764;2023-01-28T06:06:58;19.16;118.99
75799;DHT22;65035;44.726;37.764;2023-01-28T06:08:04;19.15;118.99
75799;DHT22;65035;44.726;37.764;2023-01-28T06:09:07;19.14;118.99
75799;DHT22;65035;44.726;37.764;2023-01-28T06:10:10;19.20;118.99
75799;DHT22;65035;44.726;37.764;2023-01-28T06:11:14;19.16;118.99
75799;DHT22;65035;44.726;37.764;2023-01-28T06:12:17;19.17;118.99
75799;DHT22;65035;44.726;37.764;2023-01-28T06:13:43;19.18;118.99
75799;DHT22;65035;44.726;37.764;2023-01-28T06:15:00;19.18;118.99
75799;DHT22;65035;44.726;37.764;2023-01-28T06:16:25;19.18;118.99
75799;DHT22;65035;44.726;37.764;2023-01-28T06:17:58;19.12;118.99
75799;DHT22;65035;44.726;37.764;2023-01-28T06:19:03;19.16;118.99
75799;DHT22;65035;44.726;37.764;2023-01-28T06:20:07;19.15;118.99
75799;DHT22;65035;44.726;37.764;2023-01-28T06:21:12;19.17;118.99
75799;DHT22;65035;44.726;37.764;2023-01-28T06:22:15;19.15;118.99
75799;DHT22;65035;44.726;37.764;2023-01-28T06:23:18;19.16;118.99
75799;DHT22;65035;44.726;37.764;2023-01-28T06:24:20;19.15;118.99
75799;DHT22;65035;44.726;37.764;2023-01-28T06:25:23;19.16;118.99
75799;DHT22;65035;44.726;37.764;2023-01-28T06:26:27;19.17;118.99
75799;DHT22;65035;44.726;37.764;2023-01-28T06:27:30;19.16;118.99
75799;DHT22;65035;44.726;37.764;2023-01-28T06:28:33;19.20;118.99
75799;DHT22;65035;44.726;37.764;2023-01-28T06:29:36;19.20;118.99
75799;DHT22;65035;44.726;37.764;2023-01-28T06:30:41;19.20;118.99
75799;DHT22;65035;44.726;37.764;2023-01-28T06:31:44;19.18;118.99
75799;DHT22;65035;44.726;37.764;2023-01-28T06:32:47;19.18;118.99
75799;DHT22;65035;44.726;37.764;2023-01-28T06:33:55;19.20;118.99
75799;DHT22;65035;44.726;37.764;2023-01-28T06:34:57;19.18;118.99
75799;DHT22;65035;44.726;37.764;2023-01-28T06:36:03;19.17;118.99
75799;DHT22;65035;44.726;37.764;2023-01-28T06:37:06;19.18;117.90
75799;DHT22;65035;44.726;37.764;2023-01-28T06:38:10;19.22;118.99
75799;DHT22;65035;44.726;37.764;2023-01-28T06:39:13;19.17;118.99
75799;DHT22;65035;44.726;37.764;2023-01-28T06:40:16;19.20;118.99
75799;DHT22;65035;44.726;37.764;2023-01-28T06:41:19;19.20;118.99
75799;DHT22;65035;44.726;37.764;2023-01-28T06:42:21;19.22;118.99
75799;DHT22;65035;44.726;37.764;2023-01-28T06:43:24;19.22;118.99
75799;DHT22;65035;44.726;37.764;2023-01-28T06:44:29;19.18;118.99
75799;DHT22;65035;44.726;37.764;2023-01-28T06:45:35;19.18;118.99
75799;DHT22;65035;44.726;37.764;2023-01-28T06:46:37;19.21;118.99
75799;DHT22;65035;44.726;37.764;2023-01-28T06:47:44;19.22;118.99
75799;DHT22;65035;44.726;37.764;2023-01-28T06:48:47;19.15;118.99
75799;DHT22;65035;44.726;37.764;2023-01-28T06:49:50;19.20;118.99
75799;DHT22;65035;44.726;37.764;2023-01-28T06:50:53;19.23;118.99
75799;DHT22;65035;44.726;37.764;2023-01-28T06:51:56;19.20;118.99
75799;DHT22;65035;44.726;37.764;2023-01-28T06:52:58;19.22;118.99
75799;DHT22;65035;44.726;37.764;2023-01-28T06:54:01;19.23;118.99
75799;DHT22;65035;44.726;37.764;2023-01-28T06:55:04;19.24;118.99
75799;DHT22;65035;44.726;37.764;2023-01-28T06:56:07;19.20;118.99
75799;DHT22;65035;44.726;37.764;2023-01-28T06:57:10;19.26;118.99
75799;DHT22;65035;44.726;37.764;2023-01-28T06:58:13;19.31;118.99
75799;DHT22;65035;44.726;37.764;2023-01-28T06:59:16;19.30;118.99
75799;DHT22;65035;44.726;37.764;2023-01-28T07:00:20;19.36;118.99
75799;DHT22;65035;44.726;37.764;2023-01-28T07:01:23;19.36;118.99
75799;DHT22;65035;44.726;37.764;2023-01-28T07:02:26;19.35;118.99
75799;DHT22;65035;44.726;37.764;2023-01-28T07:03:29;19.35;118.99
75799;DHT22;65035;44.726;37.764;2023-01-28T07:04:32;19.37;118.99
75799;DHT22;65035;44.726;37.764;2023-01-28T07:05:38;19.35;118.99
75799;DHT22;65035;44.726;37.764;2023-01-28T07:06:49;19.35;118.99
75799;DHT22;65035;44.726;37.764;2023-01-28T07:07:52;19.39;118.99
75799;DHT22;65035;44.726;37.764;2023-01-28T07:08:55;19.38;118.99
75799;DHT22;65035;44.726;37.764;2023-01-28T07:09:58;19.37;118.99
75799;DHT22;65035;44.726;37.764;2023-01-28T07:11:00;19.39;118.99
75799;DHT22;65035;44.726;37.764;2023-01-28T07:12:05;19.37;118.99
75799;DHT22;65035;44.726;37.764;2023-01-28T07:13:08;19.37;118.99
75799;DHT22;65035;44.726;37.764;2023-01-28T07:14:11;19.39;118.99
75799;DHT22;65035;44.726;37.764;2023-01-28T07:15:14;19.39;118.99
75799;DHT22;65035;44.726;37.764;2023-01-28T07:16:17;19.38;118.99
75799;DHT22;65035;44.726;37.764;2023-01-28T07:17:20;19.39;118.99
75799;DHT22;65035;44.726;37.764;2023-01-28T07:18:23;19.41;118.99
75799;DHT22;65035;44.726;37.764;2023-01-28T07:19:25;19.42;118.99